createdAt,value
2019-04-14T00:00:36.252Z,98745.38
2019-04-14T00:01:43.568Z,98739.42
2019-04-14T00:02:49.049Z,98738.57
2019-04-14T00:04:09.442Z,98735.59
2019-04-14T00:05:14.699Z,98735.92
2019-04-14T00:06:18.020Z,98734.42
2019-04-14T00:07:20.962Z,98741.06
2019-04-14T00:08:24.103Z,98740.91
2019-04-14T00:09:27.319Z,98736.08
2019-04-14T00:10:31.169Z,98738.09
2019-04-14T00:11:36.586Z,98736.91
2019-04-14T00:12:39.120Z,98737.61
2019-04-14T00:13:41.863Z,98731.81
2019-04-14T00:14:44.714Z,98739.46
2019-04-14T00:15:50.319Z,98738.94
2019-04-14T00:16:51.659Z,98737.45
2019-04-14T00:17:54.596Z,98738.58
2019-04-14T00:18:57.669Z,98738.73
2019-04-14T00:20:00.988Z,98738.09
2019-04-14T00:21:04.434Z,98733.62
2019-04-14T00:22:07.289Z,98736.88
2019-04-14T00:23:10.888Z,98738.41
2019-04-14T00:24:14.111Z,98740.74
2019-04-14T00:25:17.422Z,98744.37
2019-04-14T00:26:29.340Z,98739.90
2019-04-14T00:27:32.470Z,98741.08
2019-04-14T00:28:35.749Z,98738.41
2019-04-14T00:29:39.251Z,98739.09
2019-04-14T00:30:42.610Z,98740.42
2019-04-14T00:31:45.537Z,98740.91
2019-04-14T00:32:55.613Z,98738.09
2019-04-14T00:34:00.701Z,98733.73
2019-04-14T00:35:12.529Z,98733.09
2019-04-14T00:36:17.589Z,98737.09
2019-04-14T00:37:31.492Z,98741.23
2019-04-14T00:38:36.898Z,98736.59
2019-04-14T00:39:48.968Z,98740.06
2019-04-14T00:41:05.460Z,98735.44
2019-04-14T00:42:08.286Z,98735.76
2019-04-14T00:43:13.482Z,98732.30
2019-04-14T00:44:34.610Z,98736.12
2019-04-14T00:45:45.295Z,98736.80
2019-04-14T00:46:46.005Z,98740.75
2019-04-14T00:48:03.203Z,98738.25
2019-04-14T00:49:01.333Z,98732.30
2019-04-14T00:50:05.739Z,98735.59
2019-04-14T00:51:09.121Z,98737.09
2019-04-14T00:52:12.509Z,98737.94
2019-04-14T00:53:14.855Z,98737.77
2019-04-14T00:54:17.530Z,98732.42
2019-04-14T00:55:20.462Z,98738.09
2019-04-14T00:56:23.673Z,98740.75
2019-04-14T00:57:26.939Z,98737.61
2019-04-14T00:58:29.994Z,98741.95
2019-04-14T00:59:33.377Z,98734.11
2019-04-14T01:00:36.483Z,98735.80
2019-04-14T01:01:39.457Z,98741.44
2019-04-14T01:02:42.927Z,98730.97
2019-04-14T01:03:45.910Z,98734.15
2019-04-14T01:04:49.096Z,98733.98
2019-04-14T01:05:53.088Z,98738.78
2019-04-14T01:06:55.499Z,98738.47
2019-04-14T01:07:58.779Z,98734.96
2019-04-14T01:09:02.142Z,98738.63
2019-04-14T01:10:06.065Z,98738.14
2019-04-14T01:11:09.588Z,98739.11
2019-04-14T01:12:12.811Z,98742.80
2019-04-14T01:13:15.746Z,98738.78
2019-04-14T01:14:19.058Z,98738.30
2019-04-14T01:15:22.241Z,98743.94
2019-04-14T01:16:25.549Z,98738.78
2019-04-14T01:17:28.756Z,98732.99
2019-04-14T01:18:31.939Z,98738.14
2019-04-14T01:19:35.247Z,98740.60
2019-04-14T01:20:39.081Z,98741.96
2019-04-14T01:21:41.553Z,98743.28
2019-04-14T01:22:44.565Z,98742.44
2019-04-14T01:23:47.944Z,98748.44
2019-04-14T01:24:51.201Z,98742.13
2019-04-14T01:25:54.475Z,98746.07
2019-04-14T01:26:57.445Z,98745.10
2019-04-14T01:28:00.302Z,98744.26
2019-04-14T01:29:03.624Z,98748.76
2019-04-14T01:30:06.692Z,98743.94
2019-04-14T01:31:09.856Z,98745.11
2019-04-14T01:32:13.304Z,98745.45
2019-04-14T01:33:16.280Z,98748.44
2019-04-14T01:34:19.511Z,98743.77
2019-04-14T01:35:22.717Z,98749.44
2019-04-14T01:36:25.609Z,98746.75
2019-04-14T01:37:27.379Z,98745.42
2019-04-14T01:38:29.726Z,98745.42
2019-04-14T01:39:32.879Z,98746.78
2019-04-14T01:40:38.056Z,98748.41
2019-04-14T01:41:41.084Z,98747.76
2019-04-14T01:42:44.219Z,98749.73
2019-04-14T01:43:47.425Z,98746.59
2019-04-14T01:44:50.338Z,98746.42
2019-04-14T01:46:02.416Z,98747.43
2019-04-14T01:46:56.756Z,98745.94
2019-04-14T01:47:59.568Z,98745.45
2019-04-14T01:49:02.888Z,98745.42
2019-04-14T01:50:05.926Z,98744.77
2019-04-14T01:51:27.116Z,98744.25
2019-04-14T01:52:47.968Z,98747.42
2019-04-14T01:53:55.278Z,98740.10
2019-04-14T01:55:02.885Z,98741.44
2019-04-14T01:56:08.004Z,98747.59
2019-04-14T01:57:24.305Z,98744.77
2019-04-14T01:58:29.304Z,98746.27
2019-04-14T01:59:32.649Z,98744.78
2019-04-14T02:00:49.465Z,98749.60
2019-04-14T02:01:54.292Z,98747.76
2019-04-14T02:02:57.402Z,98741.95
2019-04-14T02:04:00.656Z,98744.94
2019-04-14T02:05:03.931Z,98744.62
2019-04-14T02:06:07.131Z,98751.41
2019-04-14T02:07:10.258Z,98742.44
2019-04-14T02:08:13.461Z,98743.13
2019-04-14T02:09:16.665Z,98742.97
2019-04-14T02:10:19.448Z,98741.47
2019-04-14T02:11:22.595Z,98746.95
2019-04-14T02:12:27.791Z,98741.80
2019-04-14T02:13:31.106Z,98741.11
2019-04-14T02:14:34.414Z,98736.13
2019-04-14T02:15:37.440Z,98742.28
2019-04-14T02:16:45.278Z,98741.95
2019-04-14T02:17:45.913Z,98742.13
2019-04-14T02:18:51.536Z,98746.43
2019-04-14T02:19:52.741Z,98741.92
2019-04-14T02:20:55.726Z,98741.80
2019-04-14T02:21:58.556Z,98742.77
2019-04-14T02:23:01.838Z,98743.45
2019-04-14T02:24:04.944Z,98740.11
2019-04-14T02:25:07.726Z,98741.44
2019-04-14T02:26:11.242Z,98745.58
2019-04-14T02:27:14.252Z,98743.77
2019-04-14T02:28:17.731Z,98745.62
2019-04-14T02:29:21.143Z,98742.28
2019-04-14T02:30:28.555Z,98742.28
2019-04-14T02:31:54.956Z,98737.77
2019-04-14T02:32:57.492Z,98740.78
2019-04-14T02:34:00.831Z,98745.42
2019-04-14T02:37:21.253Z,98745.94
2019-04-14T02:39:39.000Z,98743.09
2019-04-14T02:40:37.022Z,98741.12
2019-04-14T02:42:42.385Z,98746.75
2019-04-14T02:45:57.839Z,98745.94
2019-04-14T02:47:01.450Z,98743.09
2019-04-14T02:48:22.845Z,98738.95
2019-04-14T02:49:04.679Z,98743.09
2019-04-14T02:50:12.187Z,98738.14
2019-04-14T02:53:23.709Z,98749.08
2019-04-14T02:55:29.909Z,98743.42
2019-04-14T02:56:36.626Z,98744.26
2019-04-14T02:57:43.409Z,98738.46
2019-04-14T02:58:54.630Z,98747.91
2019-04-14T02:59:52.840Z,98743.61
2019-04-14T03:01:00.156Z,98745.91
2019-04-14T03:02:19.642Z,98747.06
2019-04-14T03:03:16.467Z,98737.40
2019-04-14T03:04:07.242Z,98746.42
2019-04-14T03:05:12.011Z,98742.92
2019-04-14T03:07:34.064Z,98745.25
2019-04-14T03:08:36.375Z,98743.73
2019-04-14T03:09:38.941Z,98743.77
2019-04-14T03:10:42.142Z,98740.79
2019-04-14T03:11:44.041Z,98742.24
2019-04-14T03:12:46.523Z,98743.25
2019-04-14T03:13:58.459Z,98742.44
2019-04-14T03:14:55.652Z,98745.58
2019-04-14T03:16:02.389Z,98739.10
2019-04-14T03:17:21.095Z,98742.92
2019-04-14T03:19:50.205Z,98740.91
2019-04-14T03:20:55.040Z,98742.44
2019-04-14T03:22:13.139Z,98744.90
2019-04-14T03:23:24.936Z,98745.09
2019-04-14T03:24:34.049Z,98744.41
2019-04-14T03:25:22.730Z,98751.58
2019-04-14T03:26:33.950Z,98740.75
2019-04-14T03:28:51.631Z,98739.10
2019-04-14T03:30:38.950Z,98746.43
2019-04-14T03:33:48.977Z,98746.45
2019-04-14T03:37:59.465Z,98746.27
2019-04-14T03:39:02.516Z,98746.78
2019-04-14T03:39:51.307Z,98744.45
2019-04-14T03:40:58.895Z,98742.13
2019-04-14T03:42:01.512Z,98754.39
2019-04-14T03:43:09.986Z,98745.11
2019-04-14T03:44:09.816Z,98748.92
2019-04-14T03:45:14.390Z,98745.81
2019-04-14T03:46:37.040Z,98750.77
2019-04-14T03:47:25.090Z,98746.30
2019-04-14T03:49:37.432Z,98747.44
2019-04-14T03:50:37.560Z,98746.62
2019-04-14T03:51:45.133Z,98752.58
2019-04-14T03:52:49.835Z,98750.25
2019-04-14T03:53:58.710Z,98754.23
2019-04-14T03:54:44.419Z,98753.75
2019-04-14T03:55:53.807Z,98748.28
2019-04-14T03:56:53.869Z,98756.56
2019-04-14T03:57:56.346Z,98762.20
2019-04-14T03:58:59.820Z,98754.56
2019-04-14T04:00:05.321Z,98759.06
2019-04-14T04:01:08.274Z,98750.93
2019-04-14T04:02:11.807Z,98760.03
2019-04-14T04:03:15.223Z,98758.37
2019-04-14T04:04:18.376Z,98758.02
2019-04-14T04:05:21.584Z,98757.05
2019-04-14T04:06:24.662Z,98759.22
2019-04-14T04:07:27.907Z,98755.56
2019-04-14T04:08:31.286Z,98761.03
2019-04-14T04:09:49.699Z,98762.20
2019-04-14T04:10:57.583Z,98756.70
2019-04-14T04:12:00.578Z,98759.22
2019-04-14T04:13:04.083Z,98763.05
2019-04-14T04:14:07.455Z,98758.86
2019-04-14T04:15:10.675Z,98756.05
2019-04-14T04:16:18.069Z,98762.03
2019-04-14T04:17:34.249Z,98753.91
2019-04-14T04:18:48.583Z,98755.88
2019-04-14T04:19:59.908Z,98759.55
2019-04-14T04:21:20.579Z,98759.03
2019-04-14T04:22:41.675Z,98761.36
2019-04-14T04:23:53.606Z,98759.70
2019-04-14T04:25:00.784Z,98758.05
2019-04-14T04:26:22.002Z,98760.88
2019-04-14T04:27:25.175Z,98761.68
2019-04-14T04:28:47.196Z,98763.04
2019-04-14T04:30:06.100Z,98756.40
2019-04-14T04:31:14.064Z,98761.20
2019-04-14T04:32:18.661Z,98759.03
2019-04-14T04:33:31.327Z,98762.20
2019-04-14T04:34:47.395Z,98761.88
2019-04-14T04:36:07.387Z,98761.39
2019-04-14T04:37:12.823Z,98768.38
2019-04-14T04:38:26.978Z,98759.06
2019-04-14T04:39:46.090Z,98760.38
2019-04-14T04:40:48.647Z,98764.72
2019-04-14T04:41:51.597Z,98764.06
2019-04-14T04:42:54.706Z,98767.72
2019-04-14T04:43:58.176Z,98767.39
2019-04-14T04:45:01.750Z,98773.19
2019-04-14T04:46:04.875Z,98773.03
2019-04-14T04:47:07.770Z,98765.73
2019-04-14T04:48:11.170Z,98774.68
2019-04-14T04:49:18.323Z,98771.69
2019-04-14T04:50:17.794Z,98761.41
2019-04-14T04:51:20.374Z,98770.54
2019-04-14T04:52:23.641Z,98772.53
2019-04-14T04:53:26.686Z,98771.38
2019-04-14T04:54:30.084Z,98772.70
2019-04-14T04:55:32.875Z,98768.70
2019-04-14T04:56:36.195Z,98772.37
2019-04-14T04:57:39.525Z,98774.03
2019-04-14T04:58:43.479Z,98773.84
2019-04-14T04:59:47.418Z,98768.53
2019-04-14T05:00:52.506Z,98776.66
2019-04-14T05:01:53.931Z,98777.98
2019-04-14T05:02:57.146Z,98776.01
2019-04-14T05:04:00.292Z,98773.52
2019-04-14T05:05:25.277Z,98771.19
2019-04-14T05:06:57.226Z,98776.48
2019-04-14T05:08:00.039Z,98770.00
2019-04-14T05:09:06.141Z,98778.65
2019-04-14T05:10:17.375Z,98778.66
2019-04-14T05:11:22.979Z,98780.16
2019-04-14T05:12:32.748Z,98780.83
2019-04-14T05:13:36.391Z,98784.45
2019-04-14T05:14:41.400Z,98784.30
2019-04-14T05:15:46.509Z,98782.81
2019-04-14T05:16:48.878Z,98783.63
2019-04-14T05:17:51.789Z,98790.45
2019-04-14T05:18:55.129Z,98786.12
2019-04-14T05:19:58.504Z,98789.28
2019-04-14T05:21:01.670Z,98788.28
2019-04-14T05:22:04.823Z,98787.28
2019-04-14T05:23:08.100Z,98785.95
2019-04-14T05:24:09.823Z,98783.97
2019-04-14T05:25:12.518Z,98793.91
2019-04-14T05:26:15.579Z,98797.88
2019-04-14T05:27:18.917Z,98792.27
2019-04-14T05:28:22.143Z,98801.53
2019-04-14T05:29:25.390Z,98796.09
2019-04-14T05:30:28.576Z,98795.90
2019-04-14T05:31:30.878Z,98797.55
2019-04-14T05:32:34.794Z,98792.09
2019-04-14T05:33:38.212Z,98798.73
2019-04-14T05:34:41.217Z,98795.20
2019-04-14T05:35:44.505Z,98797.89
2019-04-14T05:36:48.328Z,98796.41
2019-04-14T05:37:50.801Z,98796.72
2019-04-14T05:38:54.103Z,98799.38
2019-04-14T05:39:56.979Z,98794.75
2019-04-14T05:41:00.546Z,98796.08
2019-04-14T05:42:08.637Z,98803.69
2019-04-14T05:43:08.875Z,98798.02
2019-04-14T05:44:12.106Z,98794.04
2019-04-14T05:45:15.498Z,98797.86
2019-04-14T05:46:18.553Z,98792.42
2019-04-14T05:47:21.813Z,98798.05
2019-04-14T05:48:25.092Z,98798.38
2019-04-14T05:49:35.301Z,98791.91
2019-04-14T05:50:33.524Z,98796.56
2019-04-14T05:51:37.275Z,98799.38
2019-04-14T05:52:40.474Z,98798.57
2019-04-14T05:53:43.814Z,98797.21
2019-04-14T05:54:45.764Z,98801.55
2019-04-14T05:55:48.232Z,98801.71
2019-04-14T05:56:51.624Z,98795.04
2019-04-14T05:57:54.538Z,98800.54
2019-04-14T05:58:57.989Z,98802.88
2019-04-14T06:00:01.753Z,98801.87
2019-04-14T06:01:04.754Z,98807.68
2019-04-14T06:02:07.294Z,98806.22
2019-04-14T06:03:10.300Z,98803.70
2019-04-14T06:04:13.599Z,98802.21
2019-04-14T06:05:18.868Z,98805.52
2019-04-14T06:06:21.433Z,98807.68
2019-04-14T06:07:24.181Z,98809.03
2019-04-14T06:08:26.739Z,98810.36
2019-04-14T06:09:28.841Z,98818.16
2019-04-14T06:10:33.363Z,98817.48
2019-04-14T06:11:35.554Z,98817.66
2019-04-14T06:12:37.931Z,98814.16
2019-04-14T06:13:40.165Z,98816.98
2019-04-14T06:14:42.563Z,98817.83
2019-04-14T06:15:45.194Z,98817.98
2019-04-14T06:16:47.945Z,98814.17
2019-04-14T06:17:50.405Z,98817.48
2019-04-14T06:18:52.873Z,98812.34
2019-04-14T06:19:55.383Z,98815.16
2019-04-14T06:20:57.545Z,98815.48
2019-04-14T06:22:00.639Z,98814.50
2019-04-14T06:23:03.445Z,98819.63
2019-04-14T06:24:05.995Z,98819.45
2019-04-14T06:25:08.508Z,98820.80
2019-04-14T06:26:11.041Z,98822.61
2019-04-14T06:27:13.676Z,98819.97
2019-04-14T06:28:15.748Z,98819.80
2019-04-14T06:29:17.924Z,98827.78
2019-04-14T06:30:37.524Z,98821.28
2019-04-14T06:31:45.909Z,98817.64
2019-04-14T06:32:49.665Z,98824.61
2019-04-14T06:34:03.186Z,98820.78
2019-04-14T06:35:08.902Z,98822.46
2019-04-14T06:36:30.004Z,98823.12
2019-04-14T06:37:46.329Z,98825.27
2019-04-14T06:38:50.448Z,98826.08
2019-04-14T06:39:54.810Z,98829.42
2019-04-14T06:40:59.244Z,98834.37
2019-04-14T06:42:01.605Z,98829.75
2019-04-14T06:43:03.559Z,98829.08
2019-04-14T06:44:05.804Z,98829.73
2019-04-14T06:45:08.488Z,98828.41
2019-04-14T06:46:10.579Z,98830.59
2019-04-14T06:47:13.188Z,98830.91
2019-04-14T06:48:15.775Z,98833.41
2019-04-14T06:49:18.050Z,98822.29
2019-04-14T06:50:20.375Z,98835.05
2019-04-14T06:51:22.406Z,98831.75
2019-04-14T06:52:24.975Z,98833.58
2019-04-14T06:53:27.153Z,98834.23
2019-04-14T06:54:29.402Z,98838.89
2019-04-14T06:55:31.743Z,98836.23
2019-04-14T06:56:34.157Z,98839.71
2019-04-14T06:57:36.427Z,98836.41
2019-04-14T06:58:38.624Z,98834.39
2019-04-14T06:59:41.038Z,98839.70
2019-04-14T07:00:43.576Z,98845.67
2019-04-14T07:01:47.146Z,98840.86
2019-04-14T07:02:49.410Z,98848.15
2019-04-14T07:03:51.615Z,98850.00
2019-04-14T07:04:54.613Z,98845.53
2019-04-14T07:05:56.750Z,98847.34
2019-04-14T07:06:58.522Z,98846.66
2019-04-14T07:08:00.963Z,98850.31
2019-04-14T07:09:05.466Z,98855.81
2019-04-14T07:10:07.878Z,98852.66
2019-04-14T07:11:10.409Z,98846.17
2019-04-14T07:12:13.118Z,98857.12
2019-04-14T07:13:15.336Z,98855.15
2019-04-14T07:14:17.593Z,98860.30
2019-04-14T07:15:19.749Z,98855.81
2019-04-14T07:16:22.543Z,98860.95
2019-04-14T07:17:25.254Z,98857.30
2019-04-14T07:18:28.301Z,98852.31
2019-04-14T07:19:30.574Z,98853.98
2019-04-14T07:20:33.209Z,98865.24
2019-04-14T07:21:35.077Z,98858.61
2019-04-14T07:22:37.637Z,98859.13
2019-04-14T07:23:40.154Z,98858.60
2019-04-14T07:24:43.248Z,98853.98
2019-04-14T07:25:45.511Z,98860.94
2019-04-14T07:26:48.064Z,98860.78
2019-04-14T07:27:50.817Z,98857.78
2019-04-14T07:28:56.840Z,98863.28
2019-04-14T07:29:59.293Z,98862.64
2019-04-14T07:31:03.181Z,98863.30
2019-04-14T07:32:19.047Z,98856.33
2019-04-14T07:33:21.234Z,98858.66
2019-04-14T07:34:37.438Z,98856.30
2019-04-14T07:35:58.605Z,98854.48
2019-04-14T07:37:09.539Z,98860.47
2019-04-14T07:38:19.750Z,98859.63
2019-04-14T07:39:33.208Z,98869.44
2019-04-14T07:40:52.326Z,98869.58
2019-04-14T07:42:05.536Z,98862.29
2019-04-14T07:43:10.700Z,98865.45
2019-04-14T07:44:15.045Z,98864.27
2019-04-14T07:45:26.416Z,98871.89
2019-04-14T07:46:34.205Z,98873.92
2019-04-14T07:47:36.501Z,98872.27
2019-04-14T07:48:43.802Z,98878.06
2019-04-14T07:49:45.894Z,98874.91
2019-04-14T07:51:05.532Z,98874.56
2019-04-14T07:52:13.660Z,98871.23
2019-04-14T07:53:34.865Z,98872.58
2019-04-14T07:54:47.740Z,98873.56
2019-04-14T07:55:52.106Z,98868.58
2019-04-14T07:56:59.329Z,98869.94
2019-04-14T07:58:03.791Z,98870.26
2019-04-14T07:59:20.197Z,98874.22
2019-04-14T08:00:39.756Z,98874.73
2019-04-14T08:02:02.260Z,98877.41
2019-04-14T08:03:07.595Z,98868.94
2019-04-14T08:04:11.245Z,98878.55
2019-04-14T08:05:18.427Z,98876.88
2019-04-14T08:06:21.055Z,98867.42
2019-04-14T08:07:23.763Z,98871.89
2019-04-14T08:08:25.954Z,98869.88
2019-04-14T08:09:28.891Z,98874.88
2019-04-14T08:10:31.771Z,98874.55
2019-04-14T08:11:34.459Z,98880.35
2019-04-14T08:12:36.481Z,98873.19
2019-04-14T08:13:39.317Z,98866.87
2019-04-14T08:14:41.817Z,98869.00
2019-04-14T08:15:44.343Z,98882.61
2019-04-14T08:16:48.339Z,98875.92
2019-04-14T08:17:50.629Z,98870.92
2019-04-14T08:18:53.065Z,98873.40
2019-04-14T08:19:55.564Z,98873.41
2019-04-14T08:20:57.623Z,98872.02
2019-04-14T08:21:59.823Z,98874.99
2019-04-14T08:23:02.163Z,98877.81
2019-04-14T08:24:04.846Z,98887.59
2019-04-14T08:25:07.288Z,98882.27
2019-04-14T08:26:09.660Z,98872.89
2019-04-14T08:27:12.088Z,98878.83
2019-04-14T08:28:14.374Z,98878.43
2019-04-14T08:29:16.569Z,98870.83
2019-04-14T08:30:18.748Z,98876.47
2019-04-14T08:31:20.901Z,98872.95
2019-04-14T08:32:23.076Z,98879.27
2019-04-14T08:33:25.274Z,98879.38
2019-04-14T08:34:27.717Z,98881.63
2019-04-14T08:35:29.843Z,98881.30
2019-04-14T08:36:33.357Z,98876.00
2019-04-14T08:37:35.557Z,98879.91
2019-04-14T08:38:38.096Z,98877.31
2019-04-14T08:39:41.088Z,98875.53
2019-04-14T08:40:43.678Z,98885.25
2019-04-14T08:41:53.338Z,98880.14
2019-04-14T08:42:57.851Z,98882.70
2019-04-14T08:44:01.856Z,98872.77
2019-04-14T08:45:08.214Z,98876.56
2019-04-14T08:46:19.757Z,98873.91
2019-04-14T08:47:21.796Z,98889.02
2019-04-14T08:48:23.634Z,98885.00
2019-04-14T08:49:34.815Z,98893.23
2019-04-14T08:50:45.143Z,98889.17
2019-04-14T08:51:55.488Z,98888.13
2019-04-14T08:52:59.985Z,98881.70
2019-04-14T08:54:07.387Z,98884.47
2019-04-14T08:55:26.312Z,98878.65
2019-04-14T08:56:30.698Z,98882.67
2019-04-14T08:57:39.003Z,98880.63
2019-04-14T08:58:59.546Z,98879.91
2019-04-14T09:00:21.274Z,98873.17
2019-04-14T09:01:25.661Z,98876.44
2019-04-14T09:02:46.437Z,98879.83
2019-04-14T09:03:53.703Z,98881.62
2019-04-14T09:05:03.733Z,98881.37
2019-04-14T09:06:08.097Z,98886.80
2019-04-14T09:07:16.219Z,98881.91
2019-04-14T09:08:23.413Z,98885.67
2019-04-14T09:09:30.603Z,98880.31
2019-04-14T09:10:34.513Z,98893.44
2019-04-14T09:11:41.723Z,98885.54
2019-04-14T09:12:45.288Z,98873.51
2019-04-14T09:13:47.681Z,98890.45
2019-04-14T09:14:56.798Z,98883.59
2019-04-14T09:15:54.110Z,98878.87
2019-04-14T09:16:56.754Z,98879.83
2019-04-14T09:17:59.324Z,98883.45
2019-04-14T09:19:07.670Z,98881.95
2019-04-14T09:20:05.848Z,98882.88
2019-04-14T09:21:08.478Z,98884.12
2019-04-14T09:22:10.486Z,98889.03
2019-04-14T09:23:13.022Z,98877.93
2019-04-14T09:24:15.278Z,98890.06
2019-04-14T09:25:17.534Z,98879.75
2019-04-14T09:26:20.182Z,98885.98
2019-04-14T09:27:22.392Z,98881.11
2019-04-14T09:28:25.120Z,98882.73
2019-04-14T09:29:27.650Z,98895.02
2019-04-14T09:30:29.777Z,98887.61
2019-04-14T09:31:32.434Z,98894.50
2019-04-14T09:32:35.353Z,98888.80
2019-04-14T09:33:37.285Z,98885.75
2019-04-14T09:34:39.888Z,98887.72
2019-04-14T09:35:42.362Z,98882.84
2019-04-14T09:36:44.044Z,98890.32
2019-04-14T09:37:46.196Z,98891.59
2019-04-14T09:38:48.636Z,98889.03
2019-04-14T09:39:50.331Z,98899.14
2019-04-14T09:40:52.465Z,98881.17
2019-04-14T09:41:54.912Z,98886.09
2019-04-14T09:42:57.811Z,98886.02
2019-04-14T09:44:02.005Z,98890.33
2019-04-14T09:45:05.810Z,98879.80
2019-04-14T09:46:08.151Z,98887.20
2019-04-14T09:47:10.826Z,98883.45
2019-04-14T09:48:13.878Z,98885.07
2019-04-14T09:49:15.647Z,98884.09
2019-04-14T09:50:19.496Z,98885.00
2019-04-14T09:51:21.859Z,98888.61
2019-04-14T09:52:23.884Z,98887.87
2019-04-14T09:53:26.619Z,98884.59
2019-04-14T09:54:28.827Z,98879.88
2019-04-14T09:55:31.523Z,98876.52
2019-04-14T09:56:34.313Z,98887.01
2019-04-14T09:57:36.054Z,98890.42
2019-04-14T09:58:38.306Z,98887.54
2019-04-14T09:59:40.804Z,98891.19
2019-04-14T10:00:44.340Z,98879.28
2019-04-14T10:01:46.906Z,98886.02
2019-04-14T10:02:49.243Z,98877.03
2019-04-14T10:03:53.249Z,98890.57
2019-04-14T10:04:56.673Z,98886.67
2019-04-14T10:05:59.153Z,98889.23
2019-04-14T10:07:01.963Z,98890.27
2019-04-14T10:08:04.603Z,98889.98
2019-04-14T10:09:07.600Z,98884.58
2019-04-14T10:10:10.154Z,98898.64
2019-04-14T10:11:13.337Z,98898.84
2019-04-14T10:12:15.528Z,98892.98
2019-04-14T10:13:18.054Z,98901.16
2019-04-14T10:14:20.503Z,98892.32
2019-04-14T10:15:22.946Z,98889.16
2019-04-14T10:16:25.962Z,98888.64
2019-04-14T10:17:28.148Z,98890.70
2019-04-14T10:18:30.219Z,98887.23
2019-04-14T10:19:34.684Z,98889.69
2019-04-14T10:20:37.081Z,98893.23
2019-04-14T10:21:39.798Z,98905.23
2019-04-14T10:22:43.831Z,98894.51
2019-04-14T10:23:46.562Z,98894.23
2019-04-14T10:24:48.604Z,98902.37
2019-04-14T10:25:50.998Z,98897.17
2019-04-14T10:26:53.658Z,98890.16
2019-04-14T10:27:55.724Z,98894.51
2019-04-14T10:28:58.158Z,98886.69
2019-04-14T10:30:00.793Z,98888.75
2019-04-14T10:31:03.021Z,98903.59
2019-04-14T10:32:06.297Z,98901.23
2019-04-14T10:33:08.956Z,98900.75
2019-04-14T10:34:10.647Z,98898.96
2019-04-14T10:35:14.921Z,98889.45
2019-04-14T10:36:17.491Z,98896.58
2019-04-14T10:37:20.261Z,98897.88
2019-04-14T10:38:22.787Z,98893.77
2019-04-14T10:39:25.372Z,98899.45
2019-04-14T10:40:27.562Z,98896.13
2019-04-14T10:41:29.611Z,98897.63
2019-04-14T10:42:31.457Z,98899.10
2019-04-14T10:43:34.198Z,98898.79
2019-04-14T10:44:36.821Z,98902.23
2019-04-14T10:45:38.913Z,98912.41
2019-04-14T10:46:41.004Z,98901.88
2019-04-14T10:47:43.770Z,98908.48
2019-04-14T10:48:45.793Z,98904.30
2019-04-14T10:49:48.015Z,98896.13
2019-04-14T10:50:50.427Z,98900.58
2019-04-14T10:51:52.409Z,98896.54
2019-04-14T10:52:54.874Z,98896.81
2019-04-14T10:53:57.069Z,98896.07
2019-04-14T10:54:59.321Z,98900.39
2019-04-14T10:56:02.098Z,98898.13
2019-04-14T10:57:04.577Z,98902.06
2019-04-14T10:58:07.179Z,98904.63
2019-04-14T10:59:09.702Z,98902.06
2019-04-14T11:00:16.141Z,98910.14
2019-04-14T11:01:18.486Z,98909.73
2019-04-14T11:02:20.957Z,98903.11
2019-04-14T11:03:23.835Z,98902.81
2019-04-14T11:04:26.877Z,98899.97
2019-04-14T11:05:32.859Z,98903.95
2019-04-14T11:06:54.306Z,98906.60
2019-04-14T11:07:57.631Z,98889.37
2019-04-14T11:08:59.862Z,98900.05
2019-04-14T11:10:05.276Z,98904.77
2019-04-14T11:11:08.193Z,98905.25
2019-04-14T11:12:10.046Z,98905.38
2019-04-14T11:13:12.141Z,98909.50
2019-04-14T11:14:14.557Z,98910.42
2019-04-14T11:15:17.382Z,98900.00
2019-04-14T11:16:19.362Z,98898.16
2019-04-14T11:17:21.887Z,98896.06
2019-04-14T11:18:24.113Z,98906.03
2019-04-14T11:19:26.821Z,98904.28
2019-04-14T11:20:30.094Z,98896.57
2019-04-14T11:21:41.846Z,98894.33
2019-04-14T11:22:36.350Z,98891.25
2019-04-14T11:23:39.293Z,98887.38
2019-04-14T11:24:42.120Z,98887.00
2019-04-14T11:25:44.990Z,98891.48
2019-04-14T11:26:47.340Z,98887.52
2019-04-14T11:27:49.426Z,98885.66
2019-04-14T11:28:52.223Z,98891.21
2019-04-14T11:29:54.651Z,98887.34
2019-04-14T11:30:57.352Z,98893.14
2019-04-14T11:32:19.865Z,98890.09
2019-04-14T11:33:24.287Z,98895.52
2019-04-14T11:34:34.665Z,98901.45
2019-04-14T11:35:47.442Z,98883.52
2019-04-14T11:36:57.681Z,98896.22
2019-04-14T11:38:05.615Z,98904.02
2019-04-14T11:39:10.035Z,98901.48
2019-04-14T11:40:14.149Z,98893.13
2019-04-14T11:41:18.351Z,98890.03
2019-04-14T11:42:20.451Z,98890.91
2019-04-14T11:43:23.282Z,98894.88
2019-04-14T11:44:25.698Z,98898.67
2019-04-14T11:45:28.831Z,98896.98
2019-04-14T11:46:31.259Z,98896.23
2019-04-14T11:47:33.316Z,98890.88
2019-04-14T11:48:35.373Z,98894.63
2019-04-14T11:49:37.633Z,98897.73
2019-04-14T11:50:40.846Z,98899.22
2019-04-14T11:51:54.621Z,98896.98
2019-04-14T11:52:48.616Z,98897.02
2019-04-14T11:53:51.222Z,98888.38
2019-04-14T11:54:54.090Z,98893.44
2019-04-14T11:55:56.557Z,98898.22
2019-04-14T11:56:58.935Z,98898.05
2019-04-14T11:58:01.142Z,98889.95
2019-04-14T11:59:03.937Z,98896.75
2019-04-14T12:00:12.354Z,98898.22
2019-04-14T12:01:33.434Z,98890.61
2019-04-14T12:02:40.564Z,98892.12
2019-04-14T12:03:53.627Z,98883.70
2019-04-14T12:04:58.054Z,98893.23
2019-04-14T12:06:18.775Z,98884.70
2019-04-14T12:07:23.305Z,98889.75
2019-04-14T12:08:31.062Z,98887.40
2019-04-14T12:09:37.845Z,98894.88
2019-04-14T12:10:40.300Z,98895.30
2019-04-14T12:11:43.496Z,98889.63
2019-04-14T12:12:45.184Z,98886.58
2019-04-14T12:13:49.571Z,98889.23
2019-04-14T12:14:51.974Z,98887.06
2019-04-14T12:15:54.311Z,98883.31
2019-04-14T12:16:56.933Z,98886.50
2019-04-14T12:17:59.565Z,98888.92
2019-04-14T12:19:01.850Z,98886.92
2019-04-14T12:20:06.802Z,98877.62
2019-04-14T12:21:08.978Z,98879.32
2019-04-14T12:22:11.331Z,98885.11
2019-04-14T12:23:16.052Z,98883.32
2019-04-14T12:24:18.609Z,98878.19
2019-04-14T12:25:20.747Z,98877.44
2019-04-14T12:26:22.917Z,98882.16
2019-04-14T12:27:25.093Z,98882.48
2019-04-14T12:28:28.417Z,98883.11
2019-04-14T12:29:30.699Z,98884.42
2019-04-14T12:30:33.308Z,98886.77
2019-04-14T12:31:35.895Z,98880.70
2019-04-14T12:32:38.955Z,98875.52
2019-04-14T12:33:40.848Z,98885.12
2019-04-14T12:34:43.487Z,98880.54
2019-04-14T12:35:46.151Z,98875.80
2019-04-14T12:36:48.343Z,98878.75
2019-04-14T12:37:52.207Z,98869.88
2019-04-14T12:38:54.866Z,98865.52
2019-04-14T12:39:57.218Z,98871.31
2019-04-14T12:41:00.984Z,98865.98
2019-04-14T12:42:06.474Z,98867.66
2019-04-14T12:43:13.322Z,98871.24
2019-04-14T12:44:32.613Z,98872.16
2019-04-14T12:45:43.381Z,98871.59
2019-04-14T12:46:53.107Z,98867.38
2019-04-14T12:48:00.374Z,98873.17
2019-04-14T12:49:12.950Z,98870.81
2019-04-14T12:50:18.443Z,98876.25
2019-04-14T12:51:26.572Z,98875.55
2019-04-14T12:52:29.316Z,98873.27
2019-04-14T12:53:31.618Z,98874.17
2019-04-14T12:54:34.098Z,98870.49
2019-04-14T12:55:36.280Z,98865.16
2019-04-14T12:56:38.872Z,98872.14
2019-04-14T12:57:46.226Z,98874.06
2019-04-14T12:58:59.537Z,98881.01
2019-04-14T13:00:05.003Z,98881.10
2019-04-14T13:01:10.140Z,98871.90